sensor_id;sensor_type;location;lat;lon;timestamp;P1;durP1;ratioP1;P2;durP2;ratioP2
71959;SDS011;59832;51.146;14.024;2023-05-07T00:02:24;23.30;;;16.55;;
71959;SDS011;59832;51.146;14.024;2023-05-07T00:04:51;27.15;;;17.52;;
71959;SDS011;59832;51.146;14.024;2023-05-07T00:07:18;23.05;;;16.60;;
71959;SDS011;59832;51.146;14.024;2023-05-07T00:09:44;26.52;;;17.75;;
71959;SDS011;59832;51.146;14.024;2023-05-07T00:12:11;24.48;;;17.48;;
71959;SDS011;59832;51.146;14.024;2023-05-07T00:14:37;21.67;;;15.95;;
71959;SDS011;59832;51.146;14.024;2023-05-07T00:17:04;24.25;;;17.23;;
71959;SDS011;59832;51.146;14.024;2023-05-07T00:19:30;24.88;;;17.60;;
71959;SDS011;59832;51.146;14.024;2023-05-07T00:21:57;27.05;;;18.67;;
71959;SDS011;59832;51.146;14.024;2023-05-07T00:24:24;25.65;;;18.33;;
71959;SDS011;59832;51.146;14.024;2023-05-07T00:26:50;26.02;;;17.85;;
71959;SDS011;59832;51.146;14.024;2023-05-07T00:29:18;25.52;;;18.17;;
71959;SDS011;59832;51.146;14.024;2023-05-07T00:31:45;32.13;;;19.98;;
71959;SDS011;59832;51.146;14.024;2023-05-07T00:34:11;30.85;;;19.40;;
71959;SDS011;59832;51.146;14.024;2023-05-07T00:36:38;28.35;;;18.75;;
71959;SDS011;59832;51.146;14.024;2023-05-07T00:39:04;27.90;;;19.23;;
71959;SDS011;59832;51.146;14.024;2023-05-07T00:41:30;23.25;;;17.38;;
71959;SDS011;59832;51.146;14.024;2023-05-07T00:43:57;25.15;;;15.93;;
71959;SDS011;59832;51.146;14.024;2023-05-07T00:46:23;22.77;;;14.67;;
71959;SDS011;59832;51.146;14.024;2023-05-07T00:48:50;21.77;;;15.07;;
71959;SDS011;59832;51.146;14.024;2023-05-07T00:51:17;18.95;;;14.35;;
71959;SDS011;59832;51.146;14.024;2023-05-07T00:53:44;21.38;;;13.52;;
71959;SDS011;59832;51.146;14.024;2023-05-07T00:56:11;19.27;;;14.07;;
71959;SDS011;59832;51.146;14.024;2023-05-07T00:58:38;21.25;;;14.38;;
71959;SDS011;59832;51.146;14.024;2023-05-07T01:01:04;19.05;;;13.48;;
71959;SDS011;59832;51.146;14.024;2023-05-07T01:03:31;19.88;;;13.40;;
71959;SDS011;59832;51.146;14.024;2023-05-07T01:05:58;23.13;;;14.98;;
71959;SDS011;59832;51.146;14.024;2023-05-07T01:08:26;22.95;;;15.02;;
71959;SDS011;59832;51.146;14.024;2023-05-07T01:10:56;24.50;;;16.08;;
71959;SDS011;59832;51.146;14.024;2023-05-07T01:13:23;25.48;;;15.48;;
71959;SDS011;59832;51.146;14.024;2023-05-07T01:18:17;27.65;;;16.67;;
71959;SDS011;59832;51.146;14.024;2023-05-07T01:20:43;28.48;;;17.38;;
71959;SDS011;59832;51.146;14.024;2023-05-07T01:23:11;33.33;;;18.05;;
71959;SDS011;59832;51.146;14.024;2023-05-07T01:25:38;36.33;;;19.02;;
71959;SDS011;59832;51.146;14.024;2023-05-07T01:28:04;35.80;;;18.65;;
71959;SDS011;59832;51.146;14.024;2023-05-07T01:30:31;34.10;;;18.20;;
71959;SDS011;59832;51.146;14.024;2023-05-07T01:35:29;33.80;;;18.45;;
71959;SDS011;59832;51.146;14.024;2023-05-07T01:37:58;31.17;;;18.92;;
71959;SDS011;59832;51.146;14.024;2023-05-07T01:40:24;26.23;;;17.08;;
71959;SDS011;59832;51.146;14.024;2023-05-07T01:42:51;31.60;;;18.40;;
71959;SDS011;59832;51.146;14.024;2023-05-07T01:45:19;27.55;;;18.15;;
71959;SDS011;59832;51.146;14.024;2023-05-07T01:47:45;29.47;;;18.93;;
71959;SDS011;59832;51.146;14.024;2023-05-07T01:50:12;35.80;;;19.83;;
71959;SDS011;59832;51.146;14.024;2023-05-07T01:52:41;38.25;;;19.88;;
71959;SDS011;59832;51.146;14.024;2023-05-07T01:55:08;40.47;;;21.45;;
71959;SDS011;59832;51.146;14.024;2023-05-07T01:57:34;42.47;;;21.87;;
71959;SDS011;59832;51.146;14.024;2023-05-07T02:00:01;40.87;;;21.23;;
71959;SDS011;59832;51.146;14.024;2023-05-07T02:02:32;41.58;;;21.58;;
71959;SDS011;59832;51.146;14.024;2023-05-07T02:04:59;33.92;;;19.35;;
71959;SDS011;59832;51.146;14.024;2023-05-07T02:07:26;35.25;;;18.83;;
71959;SDS011;59832;51.146;14.024;2023-05-07T02:09:53;33.88;;;19.27;;
71959;SDS011;59832;51.146;14.024;2023-05-07T02:12:21;36.42;;;19.35;;
71959;SDS011;59832;51.146;14.024;2023-05-07T02:14:49;38.72;;;19.48;;
71959;SDS011;59832;51.146;14.024;2023-05-07T02:17:15;39.38;;;19.83;;
71959;SDS011;59832;51.146;14.024;2023-05-07T02:19:42;38.28;;;20.25;;
71959;SDS011;59832;51.146;14.024;2023-05-07T02:22:09;41.00;;;21.33;;
71959;SDS011;59832;51.146;14.024;2023-05-07T02:24:35;40.17;;;21.70;;
71959;SDS011;59832;51.146;14.024;2023-05-07T02:27:02;43.13;;;21.05;;
71959;SDS011;59832;51.146;14.024;2023-05-07T02:29:29;40.55;;;20.90;;
71959;SDS011;59832;51.146;14.024;2023-05-07T02:31:56;35.73;;;20.60;;
71959;SDS011;59832;51.146;14.024;2023-05-07T02:34:23;36.85;;;19.88;;
71959;SDS011;59832;51.146;14.024;2023-05-07T02:36:49;32.35;;;19.13;;
71959;SDS011;59832;51.146;14.024;2023-05-07T02:39:16;35.65;;;19.02;;
71959;SDS011;59832;51.146;14.024;2023-05-07T02:41:42;42.07;;;18.87;;
71959;SDS011;59832;51.146;14.024;2023-05-07T02:44:09;43.10;;;19.50;;
71959;SDS011;59832;51.146;14.024;2023-05-07T02:46:35;39.67;;;19.95;;
71959;SDS011;59832;51.146;14.024;2023-05-07T02:49:02;40.58;;;20.63;;
71959;SDS011;59832;51.146;14.024;2023-05-07T02:51:30;49.88;;;21.98;;
71959;SDS011;59832;51.146;14.024;2023-05-07T02:53:56;51.65;;;22.63;;
71959;SDS011;59832;51.146;14.024;2023-05-07T02:56:25;50.03;;;22.58;;
71959;SDS011;59832;51.146;14.024;2023-05-07T02:58:52;47.88;;;21.92;;
71959;SDS011;59832;51.146;14.024;2023-05-07T03:01:18;48.78;;;22.17;;
71959;SDS011;59832;51.146;14.024;2023-05-07T03:03:44;54.72;;;22.67;;
71959;SDS011;59832;51.146;14.024;2023-05-07T03:06:11;61.05;;;23.00;;
71959;SDS011;59832;51.146;14.024;2023-05-07T03:08:37;58.08;;;23.73;;
71959;SDS011;59832;51.146;14.024;2023-05-07T03:11:04;60.30;;;24.95;;
71959;SDS011;59832;51.146;14.024;2023-05-07T03:13:31;63.25;;;25.50;;
71959;SDS011;59832;51.146;14.024;2023-05-07T03:15:57;52.45;;;23.30;;
71959;SDS011;59832;51.146;14.024;2023-05-07T03:18:23;43.75;;;21.77;;
71959;SDS011;59832;51.146;14.024;2023-05-07T03:20:50;52.25;;;23.35;;
71959;SDS011;59832;51.146;14.024;2023-05-07T03:23:16;49.60;;;23.88;;
71959;SDS011;59832;51.146;14.024;2023-05-07T03:25:42;61.92;;;25.42;;
71959;SDS011;59832;51.146;14.024;2023-05-07T03:28:09;54.40;;;24.00;;
71959;SDS011;59832;51.146;14.024;2023-05-07T03:30:35;51.40;;;23.98;;
71959;SDS011;59832;51.146;14.024;2023-05-07T03:33:02;46.58;;;22.58;;
71959;SDS011;59832;51.146;14.024;2023-05-07T03:35:28;51.65;;;22.92;;
71959;SDS011;59832;51.146;14.024;2023-05-07T03:37:54;48.22;;;22.73;;
71959;SDS011;59832;51.146;14.024;2023-05-07T03:40:21;44.40;;;22.43;;
71959;SDS011;59832;51.146;14.024;2023-05-07T03:42:47;47.35;;;21.50;;
71959;SDS011;59832;51.146;14.024;2023-05-07T03:45:14;45.80;;;21.08;;
71959;SDS011;59832;51.146;14.024;2023-05-07T03:47:40;40.90;;;19.80;;
71959;SDS011;59832;51.146;14.024;2023-05-07T03:50:07;57.40;;;21.27;;
71959;SDS011;59832;51.146;14.024;2023-05-07T03:52:34;51.15;;;21.60;;
71959;SDS011;59832;51.146;14.024;2023-05-07T03:55:01;56.03;;;23.25;;
71959;SDS011;59832;51.146;14.024;2023-05-07T03:57:27;60.00;;;22.73;;
71959;SDS011;59832;51.146;14.024;2023-05-07T03:59:54;58.00;;;22.05;;
71959;SDS011;59832;51.146;14.024;2023-05-07T04:02:20;57.67;;;23.98;;
71959;SDS011;59832;51.146;14.024;2023-05-07T04:04:48;55.45;;;23.10;;
71959;SDS011;59832;51.146;14.024;2023-05-07T04:07:15;45.47;;;21.70;;
71959;SDS011;59832;51.146;14.024;2023-05-07T04:09:42;51.55;;;22.15;;
71959;SDS011;59832;51.146;14.024;2023-05-07T04:12:08;55.38;;;22.98;;
71959;SDS011;59832;51.146;14.024;2023-05-07T04:14:35;60.95;;;23.08;;
71959;SDS011;59832;51.146;14.024;2023-05-07T04:17:01;59.28;;;24.02;;
71959;SDS011;59832;51.146;14.024;2023-05-07T04:19:28;61.40;;;25.38;;
71959;SDS011;59832;51.146;14.024;2023-05-07T04:21:55;56.80;;;24.70;;
71959;SDS011;59832;51.146;14.024;2023-05-07T04:24:21;70.03;;;26.08;;
71959;SDS011;59832;51.146;14.024;2023-05-07T04:26:48;57.92;;;25.27;;
71959;SDS011;59832;51.146;14.024;2023-05-07T04:29:14;62.55;;;25.38;;
71959;SDS011;59832;51.146;14.024;2023-05-07T04:31:40;56.65;;;24.92;;
71959;SDS011;59832;51.146;14.024;2023-05-07T04:34:10;61.42;;;25.83;;
71959;SDS011;59832;51.146;14.024;2023-05-07T04:36:37;53.92;;;24.05;;
71959;SDS011;59832;51.146;14.024;2023-05-07T04:39:04;57.45;;;25.48;;
71959;SDS011;59832;51.146;14.024;2023-05-07T04:41:31;55.88;;;24.00;;
71959;SDS011;59832;51.146;14.024;2023-05-07T04:43:59;62.60;;;24.55;;
71959;SDS011;59832;51.146;14.024;2023-05-07T04:46:25;54.40;;;23.80;;
71959;SDS011;59832;51.146;14.024;2023-05-07T04:48:52;47.83;;;22.60;;
71959;SDS011;59832;51.146;14.024;2023-05-07T04:51:18;48.72;;;20.45;;
71959;SDS011;59832;51.146;14.024;2023-05-07T04:53:44;53.50;;;21.40;;
71959;SDS011;59832;51.146;14.024;2023-05-07T04:56:11;50.40;;;21.48;;
71959;SDS011;59832;51.146;14.024;2023-05-07T04:58:37;45.33;;;21.65;;
71959;SDS011;59832;51.146;14.024;2023-05-07T05:01:04;47.38;;;20.00;;
71959;SDS011;59832;51.146;14.024;2023-05-07T05:03:30;44.85;;;20.67;;
71959;SDS011;59832;51.146;14.024;2023-05-07T05:05:57;43.55;;;19.38;;
71959;SDS011;59832;51.146;14.024;2023-05-07T05:08:25;41.30;;;19.45;;
71959;SDS011;59832;51.146;14.024;2023-05-07T05:10:52;49.55;;;19.80;;
71959;SDS011;59832;51.146;14.024;2023-05-07T05:13:19;41.15;;;19.80;;
71959;SDS011;59832;51.146;14.024;2023-05-07T05:15:45;43.42;;;19.33;;
71959;SDS011;59832;51.146;14.024;2023-05-07T05:18:12;38.63;;;18.20;;
71959;SDS011;59832;51.146;14.024;2023-05-07T05:20:38;39.72;;;19.08;;
71959;SDS011;59832;51.146;14.024;2023-05-07T05:23:05;38.85;;;18.50;;
71959;SDS011;59832;51.146;14.024;2023-05-07T05:25:32;33.42;;;17.02;;
71959;SDS011;59832;51.146;14.024;2023-05-07T05:27:58;33.20;;;17.88;;
71959;SDS011;59832;51.146;14.024;2023-05-07T05:30:25;31.95;;;17.48;;
71959;SDS011;59832;51.146;14.024;2023-05-07T05:32:51;33.05;;;16.73;;
71959;SDS011;59832;51.146;14.024;2023-05-07T05:35:17;28.40;;;15.95;;
71959;SDS011;59832;51.146;14.024;2023-05-07T05:37:44;26.45;;;16.13;;
71959;SDS011;59832;51.146;14.024;2023-05-07T05:40:10;30.27;;;16.25;;
71959;SDS011;59832;51.146;14.024;2023-05-07T05:42:37;28.08;;;16.77;;
71959;SDS011;59832;51.146;14.024;2023-05-07T05:45:04;31.38;;;16.95;;
71959;SDS011;59832;51.146;14.024;2023-05-07T05:47:31;26.48;;;16.25;;
71959;SDS011;59832;51.146;14.024;2023-05-07T05:49:57;28.48;;;16.73;;
71959;SDS011;59832;51.146;14.024;2023-05-07T05:52:24;32.10;;;16.20;;
71959;SDS011;59832;51.146;14.024;2023-05-07T05:54:51;33.75;;;16.65;;
71959;SDS011;59832;51.146;14.024;2023-05-07T05:57:17;28.50;;;16.77;;
71959;SDS011;59832;51.146;14.024;2023-05-07T05:59:43;25.63;;;14.85;;
71959;SDS011;59832;51.146;14.024;2023-05-07T06:02:10;20.85;;;13.20;;
71959;SDS011;59832;51.146;14.024;2023-05-07T06:04:37;15.60;;;10.68;;
71959;SDS011;59832;51.146;14.024;2023-05-07T06:07:03;12.23;;;9.48;;
71959;SDS011;59832;51.146;14.024;2023-05-07T06:09:30;8.95;;;7.53;;
71959;SDS011;59832;51.146;14.024;2023-05-07T06:11:56;9.35;;;7.90;;
71959;SDS011;59832;51.146;14.024;2023-05-07T06:14:25;8.32;;;7.00;;
71959;SDS011;59832;51.146;14.024;2023-05-07T06:16:52;9.65;;;7.30;;
71959;SDS011;59832;51.146;14.024;2023-05-07T06:19:18;9.05;;;6.70;;
71959;SDS011;59832;51.146;14.024;2023-05-07T06:21:49;8.77;;;6.65;;
71959;SDS011;59832;51.146;14.024;2023-05-07T06:24:16;7.95;;;6.22;;
71959;SDS011;59832;51.146;14.024;2023-05-07T06:26:42;6.88;;;6.18;;
71959;SDS011;59832;51.146;14.024;2023-05-07T06:29:09;5.90;;;5.40;;
71959;SDS011;59832;51.146;14.024;2023-05-07T06:31:35;6.75;;;5.85;;
71959;SDS011;59832;51.146;14.024;2023-05-07T06:34:02;6.10;;;5.60;;
71959;SDS011;59832;51.146;14.024;2023-05-07T06:36:28;6.28;;;5.63;;
71959;SDS011;59832;51.146;14.024;2023-05-07T06:38:55;5.90;;;5.40;;
71959;SDS011;59832;51.146;14.024;2023-05-07T06:41:22;6.55;;;5.90;;
71959;SDS011;59832;51.146;14.024;2023-05-07T06:43:48;6.68;;;6.05;;
71959;SDS011;59832;51.146;14.024;2023-05-07T06:46:14;6.70;;;6.00;;
71959;SDS011;59832;51.146;14.024;2023-05-07T06:48:41;6.60;;;6.00;;
71959;SDS011;59832;51.146;14.024;2023-05-07T06:51:08;6.30;;;5.70;;
71959;SDS011;59832;51.146;14.024;2023-05-07T06:53:34;6.20;;;5.70;;
71959;SDS011;59832;51.146;14.024;2023-05-07T06:56:01;6.93;;;6.32;;
71959;SDS011;59832;51.146;14.024;2023-05-07T06:58:28;7.43;;;6.47;;
71959;SDS011;59832;51.146;14.024;2023-05-07T07:00:54;6.72;;;6.13;;
71959;SDS011;59832;51.146;14.024;2023-05-07T07:03:20;5.72;;;5.22;;
71959;SDS011;59832;51.146;14.024;2023-05-07T07:05:47;5.80;;;5.18;;
71959;SDS011;59832;51.146;14.024;2023-05-07T07:08:13;6.05;;;5.40;;
71959;SDS011;59832;51.146;14.024;2023-05-07T07:10:40;5.93;;;5.43;;
71959;SDS011;59832;51.146;14.024;2023-05-07T07:13:07;5.57;;;5.10;;
71959;SDS011;59832;51.146;14.024;2023-05-07T07:15:33;6.03;;;5.30;;
71959;SDS011;59832;51.146;14.024;2023-05-07T07:17:59;6.18;;;5.47;;
71959;SDS011;59832;51.146;14.024;2023-05-07T07:20:26;6.07;;;5.45;;
71959;SDS011;59832;51.146;14.024;2023-05-07T07:22:52;6.35;;;5.75;;
71959;SDS011;59832;51.146;14.024;2023-05-07T07:25:19;5.75;;;5.25;;
71959;SDS011;59832;51.146;14.024;2023-05-07T07:27:45;6.22;;;5.68;;
71959;SDS011;59832;51.146;14.024;2023-05-07T07:30:12;5.90;;;5.40;;
71959;SDS011;59832;51.146;14.024;2023-05-07T07:32:39;7.93;;;6.15;;
71959;SDS011;59832;51.146;14.024;2023-05-07T07:35:05;6.30;;;5.70;;
71959;SDS011;59832;51.146;14.024;2023-05-07T07:37:32;6.70;;;6.03;;
71959;SDS011;59832;51.146;14.024;2023-05-07T07:39:59;6.32;;;5.72;;
71959;SDS011;59832;51.146;14.024;2023-05-07T07:42:26;7.13;;;6.53;;
71959;SDS011;59832;51.146;14.024;2023-05-07T07:44:52;7.97;;;6.70;;
71959;SDS011;59832;51.146;14.024;2023-05-07T07:47:18;11.73;;;9.40;;
71959;SDS011;59832;51.146;14.024;2023-05-07T07:49:45;13.68;;;10.50;;
71959;SDS011;59832;51.146;14.024;2023-05-07T07:52:11;15.15;;;9.20;;
71959;SDS011;59832;51.146;14.024;2023-05-07T07:54:38;13.38;;;9.13;;
71959;SDS011;59832;51.146;14.024;2023-05-07T07:57:04;15.50;;;10.68;;
71959;SDS011;59832;51.146;14.024;2023-05-07T07:59:31;14.18;;;9.40;;
71959;SDS011;59832;51.146;14.024;2023-05-07T08:01:57;16.65;;;11.52;;
71959;SDS011;59832;51.146;14.024;2023-05-07T08:04:24;19.70;;;13.85;;
71959;SDS011;59832;51.146;14.024;2023-05-07T08:06:50;31.95;;;19.60;;
71959;SDS011;59832;51.146;14.024;2023-05-07T08:09:17;11.00;;;9.32;;
71959;SDS011;59832;51.146;14.024;2023-05-07T08:11:43;13.25;;;10.20;;
71959;SDS011;59832;51.146;14.024;2023-05-07T08:14:10;13.23;;;10.07;;
71959;SDS011;59832;51.146;14.024;2023-05-07T08:16:37;15.70;;;12.57;;
71959;SDS011;59832;51.146;14.024;2023-05-07T08:19:03;13.27;;;9.82;;
71959;SDS011;59832;51.146;14.024;2023-05-07T08:21:30;10.88;;;8.98;;
71959;SDS011;59832;51.146;14.024;2023-05-07T08:23:59;12.43;;;9.90;;
71959;SDS011;59832;51.146;14.024;2023-05-07T08:26:26;14.18;;;10.48;;
71959;SDS011;59832;51.146;14.024;2023-05-07T08:28:52;12.35;;;10.02;;
71959;SDS011;59832;51.146;14.024;2023-05-07T08:31:22;9.80;;;8.75;;
71959;SDS011;59832;51.146;14.024;2023-05-07T08:33:49;12.35;;;9.45;;
71959;SDS011;59832;51.146;14.024;2023-05-07T08:36:16;10.95;;;9.05;;
71959;SDS011;59832;51.146;14.024;2023-05-07T08:38:42;10.55;;;9.05;;
71959;SDS011;59832;51.146;14.024;2023-05-07T08:41:11;14.05;;;10.18;;
71959;SDS011;59832;51.146;14.024;2023-05-07T08:43:38;11.85;;;9.13;;
71959;SDS011;59832;51.146;14.024;2023-05-07T08:46:08;10.75;;;9.38;;
71959;SDS011;59832;51.146;14.024;2023-05-07T08:48:37;11.55;;;9.32;;
71959;SDS011;59832;51.146;14.024;2023-05-07T08:51:04;10.23;;;8.60;;
71959;SDS011;59832;51.146;14.024;2023-05-07T08:53:31;10.70;;;8.93;;
71959;SDS011;59832;51.146;14.024;2023-05-07T08:55:57;9.68;;;8.68;;
71959;SDS011;59832;51.146;14.024;2023-05-07T08:58:25;10.85;;;9.30;;
71959;SDS011;59832;51.146;14.024;2023-05-07T09:00:51;9.98;;;8.88;;
71959;SDS011;59832;51.146;14.024;2023-05-07T09:03:19;10.90;;;9.50;;
71959;SDS011;59832;51.146;14.024;2023-05-07T09:05:46;10.68;;;9.57;;
71959;SDS011;59832;51.146;14.024;2023-05-07T09:08:14;12.50;;;9.88;;
71959;SDS011;59832;51.146;14.024;2023-05-07T09:10:42;12.82;;;9.95;;
71959;SDS011;59832;51.146;14.024;2023-05-07T09:13:08;11.15;;;9.50;;
71959;SDS011;59832;51.146;14.024;2023-05-07T09:15:36;15.25;;;11.50;;
71959;SDS011;59832;51.146;14.024;2023-05-07T09:18:03;11.00;;;9.77;;
71959;SDS011;59832;51.146;14.024;2023-05-07T09:20:30;11.40;;;9.30;;
71959;SDS011;59832;51.146;14.024;2023-05-07T09:22:57;9.65;;;8.02;;
71959;SDS011;59832;51.146;14.024;2023-05-07T09:25:32;9.30;;;7.97;;
71959;SDS011;59832;51.146;14.024;2023-05-07T09:28:00;12.10;;;9.25;;
71959;SDS011;59832;51.146;14.024;2023-05-07T09:30:31;10.98;;;9.10;;
71959;SDS011;59832;51.146;14.024;2023-05-07T09:32:59;9.52;;;8.52;;
71959;SDS011;59832;51.146;14.024;2023-05-07T09:35:26;9.57;;;8.68;;
71959;SDS011;59832;51.146;14.024;2023-05-07T09:37:53;10.93;;;8.57;;
71959;SDS011;59832;51.146;14.024;2023-05-07T09:40:22;9.77;;;8.77;;
71959;SDS011;59832;51.146;14.024;2023-05-07T09:42:50;10.48;;;9.07;;
71959;SDS011;59832;51.146;14.024;2023-05-07T09:45:24;7.63;;;6.85;;
71959;SDS011;59832;51.146;14.024;2023-05-07T09:47:55;9.88;;;7.25;;
71959;SDS011;59832;51.146;14.024;2023-05-07T09:50:27;7.38;;;6.65;;
71959;SDS011;59832;51.146;14.024;2023-05-07T09:52:55;6.90;;;6.20;;
71959;SDS011;59832;51.146;14.024;2023-05-07T09:55:22;6.88;;;6.28;;
71959;SDS011;59832;51.146;14.024;2023-05-07T09:57:50;8.48;;;7.50;;
71959;SDS011;59832;51.146;14.024;2023-05-07T10:00:18;8.25;;;7.30;;
71959;SDS011;59832;51.146;14.024;2023-05-07T10:02:51;9.15;;;8.13;;
71959;SDS011;59832;51.146;14.024;2023-05-07T10:05:19;9.98;;;8.48;;
71959;SDS011;59832;51.146;14.024;2023-05-07T10:07:46;8.60;;;7.70;;
71959;SDS011;59832;51.146;14.024;2023-05-07T10:10:13;10.90;;;8.40;;
71959;SDS011;59832;51.146;14.024;2023-05-07T10:12:41;9.50;;;8.52;;
71959;SDS011;59832;51.146;14.024;2023-05-07T10:15:09;10.23;;;8.60;;
71959;SDS011;59832;51.146;14.024;2023-05-07T10:17:37;8.95;;;8.15;;
71959;SDS011;59832;51.146;14.024;2023-05-07T10:20:05;7.80;;;7.00;;
71959;SDS011;59832;51.146;14.024;2023-05-07T10:22:43;7.18;;;6.38;;
71959;SDS011;59832;51.146;14.024;2023-05-07T10:25:17;6.63;;;6.03;;
71959;SDS011;59832;51.146;14.024;2023-05-07T10:32:49;8.52;;;6.15;;
71959;SDS011;59832;51.146;14.024;2023-05-07T10:35:17;6.30;;;5.70;;
71959;SDS011;59832;51.146;14.024;2023-05-07T10:37:48;6.80;;;6.10;;
71959;SDS011;59832;51.146;14.024;2023-05-07T10:40:15;6.97;;;6.28;;
71959;SDS011;59832;51.146;14.024;2023-05-07T10:42:59;6.75;;;6.15;;
71959;SDS011;59832;51.146;14.024;2023-05-07T10:45:36;7.00;;;6.35;;
71959;SDS011;59832;51.146;14.024;2023-05-07T10:48:11;6.30;;;5.70;;
71959;SDS011;59832;51.146;14.024;2023-05-07T10:51:17;8.73;;;6.38;;
71959;SDS011;59832;51.146;14.024;2023-05-07T10:53:47;7.22;;;6.53;;
71959;SDS011;59832;51.146;14.024;2023-05-07T10:58:42;6.50;;;5.90;;
71959;SDS011;59832;51.146;14.024;2023-05-07T11:01:09;6.57;;;5.97;;
71959;SDS011;59832;51.146;14.024;2023-05-07T11:03:37;6.75;;;6.13;;
71959;SDS011;59832;51.146;14.024;2023-05-07T11:06:39;6.18;;;5.68;;
71959;SDS011;59832;51.146;14.024;2023-05-07T11:09:05;5.37;;;4.93;;
71959;SDS011;59832;51.146;14.024;2023-05-07T11:11:47;5.85;;;5.35;;
71959;SDS011;59832;51.146;14.024;2023-05-07T11:17:09;5.40;;;5.00;;
71959;SDS011;59832;51.146;14.024;2023-05-07T11:19:52;5.75;;;5.25;;
71959;SDS011;59832;51.146;14.024;2023-05-07T11:24:59;7.53;;;5.72;;
71959;SDS011;59832;51.146;14.024;2023-05-07T11:27:26;6.38;;;5.70;;
71959;SDS011;59832;51.146;14.024;2023-05-07T11:29:53;6.00;;;5.50;;
71959;SDS011;59832;51.146;14.024;2023-05-07T11:32:22;6.00;;;5.40;;
71959;SDS011;59832;51.146;14.024;2023-05-07T11:34:53;4.78;;;4.38;;
71959;SDS011;59832;51.146;14.024;2023-05-07T11:37:21;5.80;;;5.20;;
71959;SDS011;59832;51.146;14.024;2023-05-07T11:39:48;5.53;;;5.03;;
71959;SDS011;59832;51.146;14.024;2023-05-07T11:42:25;5.70;;;5.10;;
71959;SDS011;59832;51.146;14.024;2023-05-07T11:44:54;6.10;;;5.60;;
71959;SDS011;59832;51.146;14.024;2023-05-07T11:47:21;5.55;;;5.15;;
71959;SDS011;59832;51.146;14.024;2023-05-07T11:49:47;4.63;;;4.20;;
71959;SDS011;59832;51.146;14.024;2023-05-07T11:52:15;5.03;;;4.60;;
71959;SDS011;59832;51.146;14.024;2023-05-07T11:54:56;5.10;;;4.70;;
71959;SDS011;59832;51.146;14.024;2023-05-07T11:57:24;5.28;;;4.82;;
71959;SDS011;59832;51.146;14.024;2023-05-07T11:59:57;5.57;;;5.07;;
71959;SDS011;59832;51.146;14.024;2023-05-07T12:02:24;6.40;;;5.05;;
71959;SDS011;59832;51.146;14.024;2023-05-07T12:09:46;5.22;;;4.80;;
71959;SDS011;59832;51.146;14.024;2023-05-07T12:12:13;4.88;;;4.47;;
71959;SDS011;59832;51.146;14.024;2023-05-07T12:14:43;4.78;;;4.38;;
71959;SDS011;59832;51.146;14.024;2023-05-07T12:17:13;4.85;;;4.47;;
71959;SDS011;59832;51.146;14.024;2023-05-07T12:19:41;4.97;;;4.25;;
71959;SDS011;59832;51.146;14.024;2023-05-07T12:22:09;4.82;;;4.22;;
71959;SDS011;59832;51.146;14.024;2023-05-07T12:24:48;4.18;;;3.80;;
71959;SDS011;59832;51.146;14.024;2023-05-07T12:27:16;4.13;;;3.80;;
71959;SDS011;59832;51.146;14.024;2023-05-07T12:29:43;4.00;;;3.70;;
71959;SDS011;59832;51.146;14.024;2023-05-07T12:32:17;4.25;;;3.10;;
71959;SDS011;59832;51.146;14.024;2023-05-07T12:34:44;3.85;;;3.55;;
71959;SDS011;59832;51.146;14.024;2023-05-07T12:39:44;3.97;;;3.67;;
71959;SDS011;59832;51.146;14.024;2023-05-07T12:42:18;4.40;;;4.05;;
71959;SDS011;59832;51.146;14.024;2023-05-07T12:44:46;4.25;;;3.83;;
71959;SDS011;59832;51.146;14.024;2023-05-07T12:47:12;4.40;;;4.00;;
71959;SDS011;59832;51.146;14.024;2023-05-07T12:49:41;4.35;;;3.72;;
71959;SDS011;59832;51.146;14.024;2023-05-07T12:52:07;3.88;;;3.58;;
71959;SDS011;59832;51.146;14.024;2023-05-07T12:54:35;4.35;;;3.58;;
71959;SDS011;59832;51.146;14.024;2023-05-07T12:57:07;4.15;;;3.80;;
71959;SDS011;59832;51.146;14.024;2023-05-07T12:59:38;3.97;;;3.67;;
71959;SDS011;59832;51.146;14.024;2023-05-07T13:02:08;3.63;;;3.33;;
71959;SDS011;59832;51.146;14.024;2023-05-07T13:04:35;3.75;;;3.45;;
71959;SDS011;59832;51.146;14.024;2023-05-07T13:07:02;3.88;;;3.58;;
71959;SDS011;59832;51.146;14.024;2023-05-07T13:09:28;3.83;;;3.53;;
71959;SDS011;59832;51.146;14.024;2023-05-07T13:11:55;3.70;;;3.40;;
71959;SDS011;59832;51.146;14.024;2023-05-07T13:14:21;4.25;;;3.85;;
71959;SDS011;59832;51.146;14.024;2023-05-07T13:16:48;4.03;;;3.63;;
71959;SDS011;59832;51.146;14.024;2023-05-07T13:19:15;4.03;;;3.70;;
71959;SDS011;59832;51.146;14.024;2023-05-07T13:21:41;3.78;;;3.47;;
71959;SDS011;59832;51.146;14.024;2023-05-07T13:24:08;3.90;;;3.58;;
71959;SDS011;59832;51.146;14.024;2023-05-07T13:26:34;3.72;;;3.42;;
71959;SDS011;59832;51.146;14.024;2023-05-07T13:29:01;3.72;;;3.42;;
71959;SDS011;59832;51.146;14.024;2023-05-07T13:31:27;3.53;;;3.28;;
71959;SDS011;59832;51.146;14.024;2023-05-07T13:33:54;3.88;;;3.58;;
71959;SDS011;59832;51.146;14.024;2023-05-07T13:36:22;4.80;;;4.03;;
71959;SDS011;59832;51.146;14.024;2023-05-07T13:38:49;3.70;;;3.50;;
71959;SDS011;59832;51.146;14.024;2023-05-07T13:41:17;3.97;;;3.67;;
71959;SDS011;59832;51.146;14.024;2023-05-07T13:43:44;3.58;;;3.30;;
71959;SDS011;59832;51.146;14.024;2023-05-07T13:46:10;3.92;;;3.63;;
71959;SDS011;59832;51.146;14.024;2023-05-07T13:48:37;6.68;;;3.00;;
71959;SDS011;59832;51.146;14.024;2023-05-07T13:51:03;3.55;;;3.30;;
71959;SDS011;59832;51.146;14.024;2023-05-07T13:53:30;3.25;;;2.95;;
71959;SDS011;59832;51.146;14.024;2023-05-07T13:55:57;3.30;;;3.08;;
71959;SDS011;59832;51.146;14.024;2023-05-07T13:58:23;3.72;;;3.42;;
71959;SDS011;59832;51.146;14.024;2023-05-07T14:00:49;3.58;;;3.38;;
71959;SDS011;59832;51.146;14.024;2023-05-07T14:03:16;5.93;;;3.88;;
71959;SDS011;59832;51.146;14.024;2023-05-07T14:05:43;4.40;;;4.00;;
71959;SDS011;59832;51.146;14.024;2023-05-07T14:08:11;4.82;;;4.40;;
71959;SDS011;59832;51.146;14.024;2023-05-07T14:10:40;5.90;;;4.53;;
71959;SDS011;59832;51.146;14.024;2023-05-07T14:13:06;5.13;;;4.63;;
71959;SDS011;59832;51.146;14.024;2023-05-07T14:15:33;5.25;;;4.75;;
71959;SDS011;59832;51.146;14.024;2023-05-07T14:17:59;5.38;;;4.97;;
71959;SDS011;59832;51.146;14.024;2023-05-07T14:20:26;5.30;;;4.90;;
71959;SDS011;59832;51.146;14.024;2023-05-07T14:22:52;5.57;;;5.00;;
71959;SDS011;59832;51.146;14.024;2023-05-07T14:25:19;4.60;;;4.20;;
71959;SDS011;59832;51.146;14.024;2023-05-07T14:27:45;6.10;;;4.60;;
71959;SDS011;59832;51.146;14.024;2023-05-07T14:30:12;4.60;;;4.18;;
71959;SDS011;59832;51.146;14.024;2023-05-07T14:32:38;4.47;;;4.07;;
71959;SDS011;59832;51.146;14.024;2023-05-07T14:35:05;4.70;;;4.30;;
71959;SDS011;59832;51.146;14.024;2023-05-07T14:37:31;5.20;;;4.70;;
71959;SDS011;59832;51.146;14.024;2023-05-07T14:39:58;4.82;;;4.30;;
71959;SDS011;59832;51.146;14.024;2023-05-07T14:42:24;5.85;;;5.40;;
71959;SDS011;59832;51.146;14.024;2023-05-07T14:44:51;5.60;;;5.10;;
71959;SDS011;59832;51.146;14.024;2023-05-07T14:49:45;5.97;;;5.38;;
71959;SDS011;59832;51.146;14.024;2023-05-07T14:52:11;6.43;;;5.47;;